sensor_id;sensor_type;location;lat;lon;timestamp;pressure;altitude;pressure_sealevel;temperature;humidity
57568;BME280;43403;51.948;5.922;2022-07-22T00:00:48;102127.16;;;17.01;100.00
57568;BME280;43403;51.948;5.922;2022-07-22T00:03:14;102127.63;;;16.96;100.00
57568;BME280;43403;51.948;5.922;2022-07-22T00:05:41;102126.81;;;16.96;100.00
57568;BME280;43403;51.948;5.922;2022-07-22T00:08:07;102124.16;;;16.96;100.00
57568;BME280;43403;51.948;5.922;2022-07-22T00:10:33;102127.16;;;17.01;100.00
57568;BME280;43403;51.948;5.922;2022-07-22T00:13:00;102130.47;;;17.03;100.00
57568;BME280;43403;51.948;5.922;2022-07-22T00:15:26;102132.00;;;17.06;100.00
57568;BME280;43403;51.948;5.922;2022-07-22T00:17:53;102138.66;;;17.10;100.00
57568;BME280;43403;51.948;5.922;2022-07-22T00:20:19;102131.84;;;17.07;100.00
57568;BME280;43403;51.948;5.922;2022-07-22T00:22:46;102136.00;;;17.10;100.00
57568;BME280;43403;51.948;5.922;2022-07-22T00:25:12;102127.88;;;17.11;100.00
57568;BME280;43403;51.948;5.922;2022-07-22T00:27:39;102134.84;;;17.12;100.00
57568;BME280;43403;51.948;5.922;2022-07-22T00:30:06;102133.38;;;17.18;100.00
57568;BME280;43403;51.948;5.922;2022-07-22T00:32:35;102130.22;;;17.14;100.00
57568;BME280;43403;51.948;5.922;2022-07-22T00:35:02;102128.56;;;17.13;100.00
57568;BME280;43403;51.948;5.922;2022-07-22T00:37:28;102137.00;;;17.17;100.00
57568;BME280;43403;51.948;5.922;2022-07-22T00:39:55;102124.59;;;17.17;100.00
57568;BME280;43403;51.948;5.922;2022-07-22T00:42:21;102125.44;;;17.18;100.00
57568;BME280;43403;51.948;5.922;2022-07-22T00:44:49;102128.44;;;17.23;100.00
57568;BME280;43403;51.948;5.922;2022-07-22T00:47:16;102118.66;;;17.24;100.00
57568;BME280;43403;51.948;5.922;2022-07-22T00:49:42;102123.97;;;17.24;100.00
57568;BME280;43403;51.948;5.922;2022-07-22T00:52:09;102123.44;;;17.20;100.00
57568;BME280;43403;51.948;5.922;2022-07-22T00:54:36;102117.16;;;17.21;100.00
57568;BME280;43403;51.948;5.922;2022-07-22T00:57:03;102120.59;;;17.13;100.00
57568;BME280;43403;51.948;5.922;2022-07-22T00:59:30;102114.81;;;17.18;100.00
57568;BME280;43403;51.948;5.922;2022-07-22T01:01:56;102116.28;;;17.12;100.00
57568;BME280;43403;51.948;5.922;2022-07-22T01:04:23;102113.78;;;17.11;100.00
57568;BME280;43403;51.948;5.922;2022-07-22T01:06:50;102110.78;;;17.06;100.00
57568;BME280;43403;51.948;5.922;2022-07-22T01:09:16;102107.50;;;17.12;100.00
57568;BME280;43403;51.948;5.922;2022-07-22T01:11:43;102103.19;;;17.11;100.00
57568;BME280;43403;51.948;5.922;2022-07-22T01:14:09;102101.53;;;17.10;100.00
57568;BME280;43403;51.948;5.922;2022-07-22T01:16:36;102107.66;;;17.10;100.00
57568;BME280;43403;51.948;5.922;2022-07-22T01:19:04;102113.16;;;17.17;100.00
57568;BME280;43403;51.948;5.922;2022-07-22T01:21:31;102108.34;;;17.20;100.00
57568;BME280;43403;51.948;5.922;2022-07-22T01:23:58;102104.06;;;17.19;100.00
57568;BME280;43403;51.948;5.922;2022-07-22T01:26:25;102106.88;;;17.18;100.00
57568;BME280;43403;51.948;5.922;2022-07-22T01:28:51;102108.84;;;17.16;100.00
57568;BME280;43403;51.948;5.922;2022-07-22T01:31:18;102118.28;;;17.18;100.00
57568;BME280;43403;51.948;5.922;2022-07-22T01:33:45;102112.31;;;17.16;100.00
57568;BME280;43403;51.948;5.922;2022-07-22T01:36:12;102114.81;;;17.18;100.00
57568;BME280;43403;51.948;5.922;2022-07-22T01:38:38;102117.47;;;17.18;100.00
57568;BME280;43403;51.948;5.922;2022-07-22T01:41:05;102115.97;;;17.15;100.00
57568;BME280;43403;51.948;5.922;2022-07-22T01:43:32;102118.94;;;17.12;100.00
57568;BME280;43403;51.948;5.922;2022-07-22T01:45:58;102112.81;;;17.12;100.00
57568;BME280;43403;51.948;5.922;2022-07-22T01:48:25;102119.94;;;17.11;100.00
57568;BME280;43403;51.948;5.922;2022-07-22T01:50:51;102123.56;;;17.10;100.00
57568;BME280;43403;51.948;5.922;2022-07-22T01:53:18;102119.41;;;17.08;100.00
57568;BME280;43403;51.948;5.922;2022-07-22T01:55:44;102116.91;;;17.06;100.00
57568;BME280;43403;51.948;5.922;2022-07-22T01:58:11;102112.59;;;17.05;100.00
57568;BME280;43403;51.948;5.922;2022-07-22T02:00:37;102118.53;;;16.99;100.00
57568;BME280;43403;51.948;5.922;2022-07-22T02:03:04;102113.06;;;17.00;100.00
57568;BME280;43403;51.948;5.922;2022-07-22T02:05:31;102109.25;;;17.03;100.00
57568;BME280;43403;51.948;5.922;2022-07-22T02:08:00;102108.78;;;16.99;100.00
57568;BME280;43403;51.948;5.922;2022-07-22T02:10:27;102112.53;;;16.97;100.00
57568;BME280;43403;51.948;5.922;2022-07-22T02:12:54;102111.19;;;16.93;100.00
57568;BME280;43403;51.948;5.922;2022-07-22T02:15:20;102106.38;;;16.88;100.00
57568;BME280;43403;51.948;5.922;2022-07-22T02:17:47;102103.34;;;16.83;100.00
57568;BME280;43403;51.948;5.922;2022-07-22T02:20:13;102105.19;;;16.83;100.00
57568;BME280;43403;51.948;5.922;2022-07-22T02:22:40;102102.38;;;16.84;100.00
57568;BME280;43403;51.948;5.922;2022-07-22T02:25:06;102095.41;;;16.83;100.00
57568;BME280;43403;51.948;5.922;2022-07-22T02:27:33;102097.09;;;16.84;100.00
57568;BME280;43403;51.948;5.922;2022-07-22T02:29:59;102096.41;;;16.82;100.00
57568;BME280;43403;51.948;5.922;2022-07-22T02:32:26;102091.94;;;16.83;100.00
57568;BME280;43403;51.948;5.922;2022-07-22T02:34:52;102090.25;;;16.82;100.00
57568;BME280;43403;51.948;5.922;2022-07-22T02:37:24;102095.84;;;16.78;100.00
57568;BME280;43403;51.948;5.922;2022-07-22T02:39:51;102093.88;;;16.80;100.00
57568;BME280;43403;51.948;5.922;2022-07-22T02:42:17;102084.44;;;16.78;100.00
57568;BME280;43403;51.948;5.922;2022-07-22T02:44:44;102093.06;;;16.80;100.00
57568;BME280;43403;51.948;5.922;2022-07-22T02:47:10;102091.22;;;16.80;100.00
57568;BME280;43403;51.948;5.922;2022-07-22T02:49:37;102088.59;;;16.80;100.00
57568;BME280;43403;51.948;5.922;2022-07-22T02:52:03;102088.59;;;16.80;100.00
57568;BME280;43403;51.948;5.922;2022-07-22T02:54:30;102086.22;;;16.77;100.00
57568;BME280;43403;51.948;5.922;2022-07-22T02:56:56;102086.22;;;16.77;100.00
57568;BME280;43403;51.948;5.922;2022-07-22T02:59:22;102081.94;;;16.76;100.00
57568;BME280;43403;51.948;5.922;2022-07-22T03:01:49;102086.41;;;16.76;100.00
57568;BME280;43403;51.948;5.922;2022-07-22T03:04:15;102091.53;;;16.77;100.00
57568;BME280;43403;51.948;5.922;2022-07-22T03:06:43;102087.38;;;16.75;100.00
57568;BME280;43403;51.948;5.922;2022-07-22T03:09:10;102094.03;;;16.79;100.00
57568;BME280;43403;51.948;5.922;2022-07-22T03:11:36;102088.72;;;16.79;100.00
57568;BME280;43403;51.948;5.922;2022-07-22T03:14:03;102097.69;;;16.78;100.00
57568;BME280;43403;51.948;5.922;2022-07-22T03:16:29;102092.38;;;16.78;100.00
57568;BME280;43403;51.948;5.922;2022-07-22T03:18:56;102088.72;;;16.79;100.00
57568;BME280;43403;51.948;5.922;2022-07-22T03:21:23;102092.38;;;16.78;100.00
57568;BME280;43403;51.948;5.922;2022-07-22T03:23:49;102095.84;;;16.78;100.00
57568;BME280;43403;51.948;5.922;2022-07-22T03:26:22;102099.47;;;16.77;100.00
57568;BME280;43403;51.948;5.922;2022-07-22T03:28:50;102110.41;;;16.74;100.00
57568;BME280;43403;51.948;5.922;2022-07-22T03:31:17;102104.25;;;16.74;100.00
57568;BME280;43403;51.948;5.922;2022-07-22T03:33:43;102112.72;;;16.77;100.00
57568;BME280;43403;51.948;5.922;2022-07-22T03:36:10;102118.56;;;16.81;100.00
57568;BME280;43403;51.948;5.922;2022-07-22T03:38:37;102114.63;;;16.85;100.00
57568;BME280;43403;51.948;5.922;2022-07-22T03:41:03;102110.19;;;16.86;100.00
57568;BME280;43403;51.948;5.922;2022-07-22T03:43:31;102111.97;;;16.85;100.00
57568;BME280;43403;51.948;5.922;2022-07-22T03:45:57;102104.72;;;16.87;100.00
57568;BME280;43403;51.948;5.922;2022-07-22T03:48:24;102107.22;;;16.89;100.00
57568;BME280;43403;51.948;5.922;2022-07-22T03:50:50;102100.94;;;16.90;100.00
57568;BME280;43403;51.948;5.922;2022-07-22T03:53:17;102099.25;;;16.89;100.00
57568;BME280;43403;51.948;5.922;2022-07-22T03:55:44;102090.94;;;16.84;100.00
57568;BME280;43403;51.948;5.922;2022-07-22T03:58:10;102096.22;;;16.84;100.00
57568;BME280;43403;51.948;5.922;2022-07-22T04:00:37;102103.66;;;16.80;100.00
57568;BME280;43403;51.948;5.922;2022-07-22T04:03:04;102096.41;;;16.82;100.00
57568;BME280;43403;51.948;5.922;2022-07-22T04:05:30;102089.41;;;16.81;100.00
57568;BME280;43403;51.948;5.922;2022-07-22T04:07:57;102091.22;;;16.80;100.00
57568;BME280;43403;51.948;5.922;2022-07-22T04:10:24;102093.88;;;16.80;100.00
57568;BME280;43403;51.948;5.922;2022-07-22T04:12:50;102096.41;;;16.82;100.00
57568;BME280;43403;51.948;5.922;2022-07-22T04:15:16;102095.09;;;16.86;100.00
57568;BME280;43403;51.948;5.922;2022-07-22T04:17:43;102095.78;;;16.88;100.00
57568;BME280;43403;51.948;5.922;2022-07-22T04:20:09;102094.63;;;16.91;100.00
57568;BME280;43403;51.948;5.922;2022-07-22T04:22:36;102097.28;;;16.91;100.00
57568;BME280;43403;51.948;5.922;2022-07-22T04:25:03;102102.28;;;16.94;100.00
57568;BME280;43403;51.948;5.922;2022-07-22T04:27:29;102101.13;;;16.96;100.00
57568;BME280;43403;51.948;5.922;2022-07-22T04:29:56;102098.63;;;16.95;100.00
57568;BME280;43403;51.948;5.922;2022-07-22T04:32:23;102102.94;;;16.96;100.00
57568;BME280;43403;51.948;5.922;2022-07-22T04:34:49;102097.50;;;16.97;100.00
57568;BME280;43403;51.948;5.922;2022-07-22T04:37:15;102100.16;;;16.97;100.00
57568;BME280;43403;51.948;5.922;2022-07-22T04:39:42;102104.16;;;17.02;100.00
57568;BME280;43403;51.948;5.922;2022-07-22T04:42:08;102091.56;;;17.04;100.00
57568;BME280;43403;51.948;5.922;2022-07-22T04:44:35;102090.41;;;17.06;100.00
57568;BME280;43403;51.948;5.922;2022-07-22T04:47:01;102092.09;;;17.07;100.00
57568;BME280;43403;51.948;5.922;2022-07-22T04:49:34;102091.91;;;17.09;100.00
57568;BME280;43403;51.948;5.922;2022-07-22T04:52:00;102093.25;;;17.13;100.00
57568;BME280;43403;51.948;5.922;2022-07-22T04:54:27;102089.78;;;17.12;100.00
57568;BME280;43403;51.948;5.922;2022-07-22T04:56:54;102089.78;;;17.12;100.00
57568;BME280;43403;51.948;5.922;2022-07-22T04:59:21;102100.72;;;17.09;100.00
57568;BME280;43403;51.948;5.922;2022-07-22T05:01:49;102093.72;;;17.08;100.00
57568;BME280;43403;51.948;5.922;2022-07-22T05:04:16;102101.69;;;17.08;100.00
57568;BME280;43403;51.948;5.922;2022-07-22T05:06:42;102101.84;;;17.07;100.00
57568;BME280;43403;51.948;5.922;2022-07-22T05:09:08;102100.84;;;17.08;100.00
57568;BME280;43403;51.948;5.922;2022-07-22T05:11:35;102087.91;;;17.05;100.00
57568;BME280;43403;51.948;5.922;2022-07-22T05:14:01;102090.41;;;17.06;100.00
57568;BME280;43403;51.948;5.922;2022-07-22T05:16:28;102090.56;;;17.05;100.00
57568;BME280;43403;51.948;5.922;2022-07-22T05:18:54;102095.72;;;17.06;100.00
57568;BME280;43403;51.948;5.922;2022-07-22T05:21:21;102088.91;;;17.04;100.00
57568;BME280;43403;51.948;5.922;2022-07-22T05:23:48;102099.50;;;17.04;100.00
57568;BME280;43403;51.948;5.922;2022-07-22T05:26:14;102088.91;;;17.04;100.00
57568;BME280;43403;51.948;5.922;2022-07-22T05:28:40;102089.06;;;17.02;100.00
57568;BME280;43403;51.948;5.922;2022-07-22T05:31:07;102082.94;;;17.02;100.00
57568;BME280;43403;51.948;5.922;2022-07-22T05:33:33;102092.53;;;17.03;100.00
57568;BME280;43403;51.948;5.922;2022-07-22T05:36:00;102097.84;;;17.03;100.00
57568;BME280;43403;51.948;5.922;2022-07-22T05:38:27;102095.19;;;17.03;100.00
57568;BME280;43403;51.948;5.922;2022-07-22T05:40:53;102098.50;;;17.05;100.00
57568;BME280;43403;51.948;5.922;2022-07-22T05:43:19;102095.19;;;17.03;100.00
57568;BME280;43403;51.948;5.922;2022-07-22T05:45:46;102101.00;;;17.06;100.00
57568;BME280;43403;51.948;5.922;2022-07-22T05:48:12;102101.16;;;17.05;100.00
57568;BME280;43403;51.948;5.922;2022-07-22T05:50:39;102097.38;;;17.07;100.00
57568;BME280;43403;51.948;5.922;2022-07-22T05:53:05;102105.16;;;17.09;100.00
57568;BME280;43403;51.948;5.922;2022-07-22T05:55:32;102104.03;;;17.11;100.00
57568;BME280;43403;51.948;5.922;2022-07-22T05:57:59;102108.47;;;17.11;100.00
57568;BME280;43403;51.948;5.922;2022-07-22T06:00:25;102117.09;;;17.13;100.00
57568;BME280;43403;51.948;5.922;2022-07-22T06:02:52;102103.53;;;17.16;100.00
57568;BME280;43403;51.948;5.922;2022-07-22T06:05:18;102107.06;;;17.25;100.00
57568;BME280;43403;51.948;5.922;2022-07-22T06:08:02;102105.06;;;17.27;100.00
57568;BME280;43403;51.948;5.922;2022-07-22T06:10:28;102109.91;;;17.31;100.00
57568;BME280;43403;51.948;5.922;2022-07-22T06:12:55;102102.63;;;17.33;100.00
57568;BME280;43403;51.948;5.922;2022-07-22T06:15:21;102101.63;;;17.34;100.00
57568;BME280;43403;51.948;5.922;2022-07-22T06:17:52;102106.31;;;17.41;100.00
57568;BME280;43403;51.948;5.922;2022-07-22T06:20:19;102115.75;;;17.43;100.00
57568;BME280;43403;51.948;5.922;2022-07-22T06:22:46;102114.09;;;17.42;100.00
57568;BME280;43403;51.948;5.922;2022-07-22T06:25:12;102118.06;;;17.46;100.00
57568;BME280;43403;51.948;5.922;2022-07-22T06:27:58;102125.56;;;17.51;100.00
57568;BME280;43403;51.948;5.922;2022-07-22T06:30:25;102114.97;;;17.51;100.00
57568;BME280;43403;51.948;5.922;2022-07-22T06:32:53;102111.66;;;17.57;100.00
57568;BME280;43403;51.948;5.922;2022-07-22T06:35:22;102108.34;;;17.63;100.00
57568;BME280;43403;51.948;5.922;2022-07-22T06:37:50;102109.53;;;17.69;100.00
57568;BME280;43403;51.948;5.922;2022-07-22T06:40:33;102105.22;;;17.68;100.00
57568;BME280;43403;51.948;5.922;2022-07-22T06:43:01;102109.72;;;17.75;100.00
57568;BME280;43403;51.948;5.922;2022-07-22T06:45:28;102105.06;;;17.77;100.00
57568;BME280;43403;51.948;5.922;2022-07-22T06:47:55;102113.69;;;17.79;100.00
57568;BME280;43403;51.948;5.922;2022-07-22T06:50:22;102110.38;;;17.77;100.00
57568;BME280;43403;51.948;5.922;2022-07-22T06:52:49;102110.38;;;17.77;100.00
57568;BME280;43403;51.948;5.922;2022-07-22T06:55:16;102105.56;;;17.65;100.00
57568;BME280;43403;51.948;5.922;2022-07-22T06:57:42;102106.22;;;17.67;100.00
57568;BME280;43403;51.948;5.922;2022-07-22T07:00:09;102105.25;;;17.76;100.00
57568;BME280;43403;51.948;5.922;2022-07-22T07:02:36;102096.63;;;17.82;100.00
57568;BME280;43403;51.948;5.922;2022-07-22T07:05:03;102093.13;;;17.82;100.00
57568;BME280;43403;51.948;5.922;2022-07-22T07:07:30;102104.13;;;17.87;100.00
57568;BME280;43403;51.948;5.922;2022-07-22T07:09:58;102099.19;;;18.00;100.00
57568;BME280;43403;51.948;5.922;2022-07-22T07:12:25;102092.84;;;18.01;100.00
57568;BME280;43403;51.948;5.922;2022-07-22T07:14:52;102092.03;;;18.09;100.00
57568;BME280;43403;51.948;5.922;2022-07-22T07:17:38;102097.03;;;18.20;100.00
57568;BME280;43403;51.948;5.922;2022-07-22T07:20:06;102095.53;;;18.26;100.00
57568;BME280;43403;51.948;5.922;2022-07-22T07:22:33;102099.53;;;18.30;100.00
57568;BME280;43403;51.948;5.922;2022-07-22T07:25:04;102098.69;;;18.37;100.00
57568;BME280;43403;51.948;5.922;2022-07-22T07:27:48;102099.69;;;18.45;100.00
57568;BME280;43403;51.948;5.922;2022-07-22T07:30:15;102090.88;;;18.52;100.00
57568;BME280;43403;51.948;5.922;2022-07-22T07:32:42;102090.38;;;18.57;100.00
57568;BME280;43403;51.948;5.922;2022-07-22T07:35:09;102084.88;;;18.67;100.00
57568;BME280;43403;51.948;5.922;2022-07-22T07:37:36;102090.53;;;18.72;100.00
57568;BME280;43403;51.948;5.922;2022-07-22T07:40:03;102092.00;;;18.83;100.00
57568;BME280;43403;51.948;5.922;2022-07-22T07:42:30;102087.19;;;18.86;100.00
57568;BME280;43403;51.948;5.922;2022-07-22T07:44:57;102095.94;;;18.95;100.00
57568;BME280;43403;51.948;5.922;2022-07-22T07:47:23;102094.31;;;18.94;100.00
57568;BME280;43403;51.948;5.922;2022-07-22T07:49:49;102100.78;;;19.00;100.00
57568;BME280;43403;51.948;5.922;2022-07-22T07:52:16;102105.41;;;19.06;100.00
57568;BME280;43403;51.948;5.922;2022-07-22T07:54:44;102102.38;;;19.09;100.00
57568;BME280;43403;51.948;5.922;2022-07-22T07:57:30;102093.94;;;19.05;100.00
57568;BME280;43403;51.948;5.922;2022-07-22T07:59:56;102098.75;;;19.10;100.00
57568;BME280;43403;51.948;5.922;2022-07-22T08:02:23;102104.56;;;19.13;100.00
57568;BME280;43403;51.948;5.922;2022-07-22T08:04:50;102104.19;;;19.16;100.00
57568;BME280;43403;51.948;5.922;2022-07-22T08:07:24;102104.00;;;19.26;100.00
57568;BME280;43403;51.948;5.922;2022-07-22T08:09:52;102105.47;;;19.37;100.00
57568;BME280;43403;51.948;5.922;2022-07-22T08:12:38;102101.28;;;19.43;100.00
57568;BME280;43403;51.948;5.922;2022-07-22T08:15:05;102102.06;;;19.51;100.00
57568;BME280;43403;51.948;5.922;2022-07-22T08:17:34;102101.06;;;19.52;100.00
57568;BME280;43403;51.948;5.922;2022-07-22T08:20:02;102100.53;;;19.57;100.00
57568;BME280;43403;51.948;5.922;2022-07-22T08:22:30;102103.53;;;19.54;100.00
57568;BME280;43403;51.948;5.922;2022-07-22T08:24:57;102105.50;;;19.60;100.00
57568;BME280;43403;51.948;5.922;2022-07-22T08:27:23;102108.81;;;19.62;100.00
57568;BME280;43403;51.948;5.922;2022-07-22T08:29:50;102105.97;;;19.64;100.00
57568;BME280;43403;51.948;5.922;2022-07-22T08:32:16;102105.44;;;19.77;100.00
57568;BME280;43403;51.948;5.922;2022-07-22T08:34:43;102107.44;;;19.74;100.00
57568;BME280;43403;51.948;5.922;2022-07-22T08:37:09;102103.25;;;19.80;100.00
57568;BME280;43403;51.948;5.922;2022-07-22T08:39:36;102095.03;;;19.90;100.00
57568;BME280;43403;51.948;5.922;2022-07-22T08:42:03;102090.78;;;20.04;100.00
57568;BME280;43403;51.948;5.922;2022-07-22T08:44:31;102078.13;;;20.21;100.00
57568;BME280;43403;51.948;5.922;2022-07-22T08:46:59;102081.84;;;20.34;100.00
57568;BME280;43403;51.948;5.922;2022-07-22T08:49:38;102091.72;;;20.49;100.00
57568;BME280;43403;51.948;5.922;2022-07-22T08:52:05;102084.84;;;20.54;100.00
57568;BME280;43403;51.948;5.922;2022-07-22T08:54:31;102080.56;;;20.68;100.00
57568;BME280;43403;51.948;5.922;2022-07-22T08:56:57;102075.13;;;20.77;100.00
57568;BME280;43403;51.948;5.922;2022-07-22T08:59:25;102073.84;;;20.87;100.00
57568;BME280;43403;51.948;5.922;2022-07-22T09:02:09;102080.75;;;20.97;100.00
57568;BME280;43403;51.948;5.922;2022-07-22T09:07:31;102092.34;;;21.04;100.00
57568;BME280;43403;51.948;5.922;2022-07-22T09:09:58;102090.50;;;21.04;100.00
57568;BME280;43403;51.948;5.922;2022-07-22T09:12:25;102093.44;;;21.09;100.00
57568;BME280;43403;51.948;5.922;2022-07-22T09:14:55;102087.06;;;21.10;100.00
57568;BME280;43403;51.948;5.922;2022-07-22T09:17:31;102086.06;;;21.11;100.00
57568;BME280;43403;51.948;5.922;2022-07-22T09:20:00;102078.16;;;21.18;100.00
57568;BME280;43403;51.948;5.922;2022-07-22T09:22:31;102069.78;;;21.21;100.00
57568;BME280;43403;51.948;5.922;2022-07-22T09:24:57;102070.13;;;21.18;100.00
57568;BME280;43403;51.948;5.922;2022-07-22T09:27:25;102074.53;;;21.26;100.00
57568;BME280;43403;51.948;5.922;2022-07-22T09:29:52;102072.78;;;21.33;100.00
57568;BME280;43403;51.948;5.922;2022-07-22T09:32:20;102069.38;;;21.39;100.00
57568;BME280;43403;51.948;5.922;2022-07-22T09:34:47;102074.63;;;21.47;100.00
57568;BME280;43403;51.948;5.922;2022-07-22T09:37:14;102075.53;;;21.55;100.00
57568;BME280;43403;51.948;5.922;2022-07-22T09:39:40;102081.50;;;21.57;100.00
57568;BME280;43403;51.948;5.922;2022-07-22T09:42:07;102077.75;;;21.51;100.00
57568;BME280;43403;51.948;5.922;2022-07-22T09:44:34;102075.44;;;21.48;100.00
57568;BME280;43403;51.948;5.922;2022-07-22T09:47:00;102082.81;;;21.46;100.00
57568;BME280;43403;51.948;5.922;2022-07-22T09:49:35;102076.66;;;21.45;100.00
57568;BME280;43403;51.948;5.922;2022-07-22T09:52:03;102066.50;;;21.56;100.00
57568;BME280;43403;51.948;5.922;2022-07-22T09:54:29;102069.44;;;21.61;100.00
57568;BME280;43403;51.948;5.922;2022-07-22T09:56:56;102063.97;;;21.69;100.00
57568;BME280;43403;51.948;5.922;2022-07-22T09:59:23;102066.91;;;21.74;100.00
57568;BME280;43403;51.948;5.922;2022-07-22T10:01:54;102062.13;;;21.69;100.00
57568;BME280;43403;51.948;5.922;2022-07-22T10:04:23;102069.13;;;21.70;100.00
57568;BME280;43403;51.948;5.922;2022-07-22T10:06:51;102056.72;;;21.63;100.00
57568;BME280;43403;51.948;5.922;2022-07-22T10:09:21;102060.06;;;21.71;100.00
57568;BME280;43403;51.948;5.922;2022-07-22T10:11:48;102055.91;;;21.62;100.00
57568;BME280;43403;51.948;5.922;2022-07-22T10:14:17;102050.16;;;21.65;100.00
57568;BME280;43403;51.948;5.922;2022-07-22T10:16:48;102059.41;;;21.84;100.00
57568;BME280;43403;51.948;5.922;2022-07-22T10:19:15;102060.53;;;21.97;100.00
57568;BME280;43403;51.948;5.922;2022-07-22T10:21:41;102055.56;;;22.15;100.00
57568;BME280;43403;51.948;5.922;2022-07-22T10:29:32;102051.31;;;22.49;100.00
57568;BME280;43403;51.948;5.922;2022-07-22T10:38:10;102057.22;;;23.07;99.06
57568;BME280;43403;51.948;5.922;2022-07-22T10:41:00;102054.34;;;23.16;97.70
57568;BME280;43403;51.948;5.922;2022-07-22T10:43:29;102048.25;;;22.94;90.87
57568;BME280;43403;51.948;5.922;2022-07-22T10:46:00;102058.53;;;22.90;98.29
57568;BME280;43403;51.948;5.922;2022-07-22T10:48:43;102058.47;;;22.83;97.68
57568;BME280;43403;51.948;5.922;2022-07-22T10:51:19;102062.81;;;22.84;100.00
57568;BME280;43403;51.948;5.922;2022-07-22T10:56:22;102051.59;;;22.61;92.15
57568;BME280;43403;51.948;5.922;2022-07-22T10:59:14;102057.56;;;22.63;97.14
57568;BME280;43403;51.948;5.922;2022-07-22T11:01:43;102056.94;;;22.61;93.33
57568;BME280;43403;51.948;5.922;2022-07-22T11:04:21;102045.47;;;22.74;98.52
57568;BME280;43403;51.948;5.922;2022-07-22T11:06:50;102047.41;;;22.86;98.24
57568;BME280;43403;51.948;5.922;2022-07-22T11:09:19;102041.84;;;22.88;92.79
57568;BME280;43403;51.948;5.922;2022-07-22T11:11:52;102053.00;;;22.98;96.37
57568;BME280;43403;51.948;5.922;2022-07-22T11:14:31;102048.94;;;23.02;90.30
57568;BME280;43403;51.948;5.922;2022-07-22T11:17:03;102050.75;;;23.02;89.26
57568;BME280;43403;51.948;5.922;2022-07-22T11:19:31;102047.03;;;22.96;88.24
57568;BME280;43403;51.948;5.922;2022-07-22T11:22:09;102040.72;;;23.04;92.39
57568;BME280;43403;51.948;5.922;2022-07-22T11:24:37;102039.25;;;23.01;90.84
57568;BME280;43403;51.948;5.922;2022-07-22T11:27:09;102036.84;;;23.20;91.29
57568;BME280;43403;51.948;5.922;2022-07-22T11:29:39;102029.84;;;23.19;88.00
57568;BME280;43403;51.948;5.922;2022-07-22T11:32:08;102028.81;;;23.13;91.54
57568;BME280;43403;51.948;5.922;2022-07-22T11:34:40;102030.50;;;23.27;92.77
57568;BME280;43403;51.948;5.922;2022-07-22T11:37:09;102024.72;;;23.30;91.34
57568;BME280;43403;51.948;5.922;2022-07-22T11:39:35;102021.03;;;23.38;92.59
57568;BME280;43403;51.948;5.922;2022-07-22T11:42:02;102020.25;;;23.51;87.79
57568;BME280;43403;51.948;5.922;2022-07-22T11:44:34;102025.84;;;23.56;90.30
57568;BME280;43403;51.948;5.922;2022-07-22T11:47:02;102023.56;;;23.53;86.71
57568;BME280;43403;51.948;5.922;2022-07-22T11:49:31;102019.44;;;23.57;89.35
57568;BME280;43403;51.948;5.922;2022-07-22T11:52:03;102015.31;;;23.61;89.85
57568;BME280;43403;51.948;5.922;2022-07-22T11:54:30;102013.69;;;23.60;88.29
57568;BME280;43403;51.948;5.922;2022-07-22T11:56:57;102015.97;;;23.70;88.89
57568;BME280;43403;51.948;5.922;2022-07-22T11:59:23;102014.34;;;23.82;86.98
57568;BME280;43403;51.948;5.922;2022-07-22T12:01:51;102002.78;;;23.95;86.49
57568;BME280;43403;51.948;5.922;2022-07-22T12:04:22;102005.69;;;24.00;85.62
57568;BME280;43403;51.948;5.922;2022-07-22T12:06:50;102006.31;;;23.96;80.79
57568;BME280;43403;51.948;5.922;2022-07-22T12:09:26;102000.53;;;23.85;86.06
57568;BME280;43403;51.948;5.922;2022-07-22T12:11:55;101997.22;;;23.83;85.54
57568;BME280;43403;51.948;5.922;2022-07-22T12:14:26;101986.09;;;23.86;85.59
57568;BME280;43403;51.948;5.922;2022-07-22T12:17:03;101985.28;;;23.66;81.67
57568;BME280;43403;51.948;5.922;2022-07-22T12:19:31;101975.75;;;23.63;85.56
57568;BME280;43403;51.948;5.922;2022-07-22T12:22:01;101979.47;;;23.69;80.96
57568;BME280;43403;51.948;5.922;2022-07-22T12:27:05;101966.31;;;23.81;82.57
57568;BME280;43403;51.948;5.922;2022-07-22T12:34:33;101949.38;;;24.85;80.84
57568;BME280;43403;51.948;5.922;2022-07-22T12:40:01;101951.28;;;25.49;77.33
57568;BME280;43403;51.948;5.922;2022-07-22T12:42:31;101953.28;;;25.21;73.99
57568;BME280;43403;51.948;5.922;2022-07-22T12:45:15;101954.09;;;24.83;76.97
57568;BME280;43403;51.948;5.922;2022-07-22T12:47:54;101946.09;;;24.77;76.17
57568;BME280;43403;51.948;5.922;2022-07-22T12:50:30;101939.72;;;24.71;77.74
57568;BME280;43403;51.948;5.922;2022-07-22T12:53:00;101949.03;;;24.62;78.86
57568;BME280;43403;51.948;5.922;2022-07-22T12:55:50;101946.16;;;24.70;79.01
57568;BME280;43403;51.948;5.922;2022-07-22T12:58:19;101948.44;;;24.66;79.59
57568;BME280;43403;51.948;5.922;2022-07-22T13:00:49;101952.22;;;24.97;83.68
57568;BME280;43403;51.948;5.922;2022-07-22T13:03:17;101950.44;;;25.23;80.33
57568;BME280;43403;51.948;5.922;2022-07-22T13:05:49;101947.03;;;25.34;80.35
57568;BME280;43403;51.948;5.922;2022-07-22T13:08:16;101947.19;;;25.39;80.36
57568;BME280;43403;51.948;5.922;2022-07-22T13:10:43;101950.44;;;25.48;81.39
57568;BME280;43403;51.948;5.922;2022-07-22T13:13:09;101944.19;;;25.54;77.73
57568;BME280;43403;51.948;5.922;2022-07-22T13:15:36;101947.59;;;25.68;78.92